This is the latest recevied weather packets stored in our database for station/object TAPIOLA. If no packets are shown the sender has not sent any weather packets the latest 10 day(s).
| Time | Temp. | Humidity | Pressure | Rain* | Wind** | Luminosity | Snow |
|---|---|---|---|---|---|---|---|
| 1777219594 | 6.67° C | 29% | 1007.3 hPa | 0 mm | - | - | - |
| 1777218394 | 6.67° C | 30% | 1007.2 hPa | 0 mm | - | - | - |
| 1777217193 | 7.22° C | 28% | 1006.9 hPa | 0 mm | - | - | - |
| 1777215994 | 7.22° C | 28% | 1006.8 hPa | 0 mm | - | - | - |
| 1777214794 | 7.22° C | 26% | 1006.5 hPa | 0 mm | - | - | - |
| 1777213594 | 6.67° C | 27% | 1006.5 hPa | 0 mm | - | - | - |
| 1777212393 | 6.11° C | 28% | 1006.3 hPa | 0 mm | - | - | - |
| 1777211193 | 6.67° C | 30% | 1006.1 hPa | 0 mm | - | - | - |
| 1777209993 | 6.67° C | 28% | 1005.8 hPa | 0 mm | - | - | - |
| 1777208793 | 5.56° C | 29% | 1005.6 hPa | 0 mm | - | - | - |
| 1777207593 | 6.11° C | 31% | 1005.4 hPa | 0 mm | - | - | - |
| 1777206393 | 5.56° C | 30% | 1005.3 hPa | 0 mm | - | - | - |
| 1777205193 | 6.67° C | 28% | 1004.9 hPa | 0 mm | - | - | - |
| 1777203993 | 6.11° C | 31% | 1004.8 hPa | 0 mm | - | - | - |
| 1777202793 | 6.67° C | 30% | 1004.5 hPa | 0 mm | - | - | - |
| 1777201593 | 5.56° C | 31% | 1004.2 hPa | 0 mm | - | - | - |
| 1777200393 | 6.11° C | 30% | 1004.1 hPa | 0 mm | - | - | - |
| 1777199192 | 5.56° C | 31% | 1003.6 hPa | 0 mm | - | - | - |
| 1777197993 | 5° C | 35% | 1003.4 hPa | 0 mm | - | - | - |
| 1777196792 | 6.11° C | 32% | 1003 hPa | 0 mm | - | - | - |
| 1777195592 | 5.56° C | 33% | 1002.8 hPa | 0 mm | - | - | - |
| 1777194392 | 5° C | 33% | 1002.4 hPa | 0 mm | - | - | - |
| 1777193192 | 4.44° C | 36% | 1002.1 hPa | 0 mm | - | - | - |
| 1777191992 | 3.89° C | 40% | 1001.9 hPa | 0 mm | - | - | - |
| 1777190792 | 3.89° C | 40% | 1001.6 hPa | 0 mm | - | - | - |
* Rain latest hour (hover to see other rain measurements)
** Current wind speed in m/s (hover to see current wind gust speed)